Time;durP1;ratioP1;P1;durP2;ratioP2;P2;SDS_P1;SDS_P2;PMS_P1;PMS_P2;Temp;Humidity;BMP_temperature;BMP_pressure;BME280_temperature;BME280_humidity;BME280_pressure;Samples;Min_cycle;Max_cycle;Signal;HPM_P1;HPM_P2
2021/07/20 00:02:37;;;;;;;19.33;12.55;;;18.30;73.60;;;;;;5074613;28;20032;-79
2021/07/20 00:05:07;;;;;;;18.67;12.13;;;18.20;73.50;;;;;;5074301;28;20045;-80
2021/07/20 00:07:33;;;;;;;18.05;11.45;;;18.10;73.90;;;;;;5074517;28;20085;-79
2021/07/20 00:09:59;;;;;;;18.98;11.43;;;18.00;74.20;;;;;;5074372;28;20384;-79
2021/07/20 00:12:27;;;;;;;16.80;12.02;;;18.00;74.40;;;;;;5074314;28;20028;-78
2021/07/20 00:14:53;;;;;;;17.63;11.98;;;17.90;74.30;;;;;;5074285;28;20020;-77
2021/07/20 00:17:22;;;;;;;19.80;12.02;;;17.90;74.60;;;;;;5074259;28;20024;-79
2021/07/20 00:19:49;;;;;;;19.33;12.13;;;17.90;75.20;;;;;;5074070;28;20124;-79
2021/07/20 00:22:15;;;;;;;15.70;12.07;;;17.90;75.10;;;;;;5074091;28;20372;-79
2021/07/20 00:24:41;;;;;;;18.98;12.77;;;17.90;75.10;;;;;;5074157;28;20082;-79
2021/07/20 00:27:07;;;;;;;18.27;12.65;;;17.90;74.90;;;;;;5074009;28;20028;-78
2021/07/20 00:29:32;;;;;;;21.00;12.90;;;17.90;74.80;;;;;;5074106;28;20027;-80
2021/07/20 00:31:58;;;;;;;18.23;13.30;;;17.90;74.80;;;;;;5056006;28;20029;-80
2021/07/20 00:34:23;;;;;;;20.77;12.90;;;17.90;75.00;;;;;;5074013;28;20032;-80
2021/07/20 00:36:49;;;;;;;18.30;12.32;;;17.80;75.00;;;;;;5073880;28;20024;-79
2021/07/20 00:39:14;;;;;;;15.02;11.32;;;17.80;74.80;;;;;;5073902;28;20499;-79
2021/07/20 00:41:40;;;;;;;17.98;12.48;;;17.80;74.70;;;;;;5073934;28;20024;-79
2021/07/20 00:44:06;;;;;;;17.90;13.10;;;17.80;74.80;;;;;;5073852;28;20020;-79
2021/07/20 00:46:31;;;;;;;18.83;12.70;;;17.80;75.10;;;;;;5073708;28;20095;-79
2021/07/20 00:48:57;;;;;;;20.27;12.57;;;17.70;75.40;;;;;;5073699;28;20043;-79
2021/07/20 00:51:23;;;;;;;17.95;12.13;;;17.70;75.10;;;;;;5073625;28;20082;-79
2021/07/20 00:53:50;;;;;;;17.33;11.80;;;17.70;75.00;;;;;;5073497;28;20480;-79
2021/07/20 00:56:16;;;;;;;14.52;11.32;;;17.70;75.10;;;;;;5073651;28;20020;-79
2021/07/20 00:58:43;;;;;;;18.40;12.60;;;17.60;75.20;;;;;;5073483;28;20461;-79
2021/07/20 01:01:09;;;;;;;19.52;13.38;;;17.60;75.20;;;;;;5073178;28;20024;-79
2021/07/20 01:03:35;;;;;;;18.85;12.85;;;17.50;75.20;;;;;;5073599;28;20052;-80
2021/07/20 01:06:02;;;;;;;21.88;13.13;;;17.60;75.10;;;;;;5079341;28;20021;-79
2021/07/20 01:08:30;;;;;;;19.08;12.68;;;17.50;75.30;;;;;;5073516;28;20476;-80
2021/07/20 01:10:57;;;;;;;15.30;11.93;;;17.40;75.40;;;;;;5073376;28;20120;-79
2021/07/20 01:13:25;;;;;;;16.65;12.30;;;17.40;75.40;;;;;;5073258;28;20029;-80
2021/07/20 01:15:51;;;;;;;19.40;13.15;;;17.40;75.50;;;;;;5073406;28;20362;-79
2021/07/20 01:18:18;;;;;;;19.42;13.27;;;17.30;76.30;;;;;;5073378;28;20035;-79
2021/07/20 01:20:44;;;;;;;16.10;12.00;;;17.20;76.20;;;;;;5073354;28;20079;-79
2021/07/20 01:23:22;;;;;;;17.00;12.35;;;17.30;76.20;;;;;;5073456;28;20519;-80
2021/07/20 01:25:49;;;;;;;17.58;12.25;;;17.30;76.10;;;;;;5055294;28;20074;-79
2021/07/20 01:28:18;;;;;;;19.48;12.63;;;17.30;75.90;;;;;;5073246;28;20429;-79
2021/07/20 01:30:47;;;;;;;18.00;11.90;;;17.30;75.70;;;;;;5073153;28;20034;-79
2021/07/20 01:33:15;;;;;;;22.60;13.40;;;17.30;75.60;;;;;;5073233;28;20376;-79
2021/07/20 01:35:44;;;;;;;21.05;13.65;;;17.20;75.70;;;;;;5073113;28;20028;-79
2021/07/20 01:38:11;;;;;;;22.08;12.52;;;17.10;76.10;;;;;;5073016;28;20056;-79
2021/07/20 01:40:38;;;;;;;20.33;12.98;;;17.00;76.10;;;;;;5072912;28;20017;-78
2021/07/20 01:43:05;;;;;;;20.65;13.55;;;17.10;77.30;;;;;;5072869;28;20031;-79
2021/07/20 01:45:35;;;;;;;18.25;12.90;;;17.00;76.50;;;;;;5072903;28;20067;-79
2021/07/20 01:48:03;;;;;;;17.58;12.98;;;16.90;76.50;;;;;;5072909;28;20024;-79
2021/07/20 01:50:29;;;;;;;17.00;12.48;;;16.90;76.50;;;;;;5072927;28;20031;-77
2021/07/20 01:52:55;;;;;;;18.73;13.27;;;16.90;76.70;;;;;;5072759;28;20068;-79
2021/07/20 01:55:24;;;;;;;18.45;13.35;;;16.90;76.70;;;;;;5073082;28;20424;-79
2021/07/20 01:57:51;;;;;;;19.60;12.70;;;16.90;76.80;;;;;;5089974;28;20032;-76
2021/07/20 02:00:18;;;;;;;18.42;12.13;;;16.80;76.90;;;;;;5085823;28;20028;-77
2021/07/20 02:08:30;;;;;;;18.50;13.10;;;16.70;76.90;;;;;;5072774;28;20330;-79
2021/07/20 02:11:01;;;;;;;16.77;12.65;;;16.70;77.00;;;;;;5072475;28;20461;-79
2021/07/20 02:13:29;;;;;;;19.88;13.05;;;16.70;76.90;;;;;;5076301;28;20036;-79
2021/07/20 02:15:56;;;;;;;19.70;13.38;;;16.70;76.90;;;;;;5076308;28;20031;-79
2021/07/20 02:18:27;;;;;;;18.23;13.00;;;16.70;76.80;;;;;;5076411;28;20034;-80
2021/07/20 02:20:53;;;;;;;19.60;13.25;;;16.70;76.90;;;;;;5058452;28;20091;-79
2021/07/20 02:23:20;;;;;;;20.17;12.93;;;16.70;76.90;;;;;;5076425;28;20491;-77
2021/07/20 02:25:48;;;;;;;20.90;15.13;;;16.60;77.00;;;;;;5076200;28;20030;-77
2021/07/20 02:28:15;;;;;;;20.20;14.90;;;16.60;77.00;;;;;;5076239;28;20480;-77
2021/07/20 02:30:42;;;;;;;20.52;13.45;;;16.50;77.40;;;;;;5058253;28;20111;-77
2021/07/20 02:33:08;;;;;;;24.73;14.98;;;16.40;77.60;;;;;;5076299;28;20469;-76
2021/07/20 02:35:36;;;;;;;23.90;13.55;;;16.40;77.60;;;;;;5076125;28;20487;-78
2021/07/20 02:38:02;;;;;;;17.73;13.35;;;16.30;77.90;;;;;;5058162;28;20070;-77
2021/07/20 02:40:28;;;;;;;19.50;14.15;;;16.30;77.80;;;;;;5076056;28;20021;-78
2021/07/20 02:42:57;;;;;;;23.40;15.10;;;16.30;77.90;;;;;;5075959;28;20032;-77
2021/07/20 02:45:23;;;;;;;19.30;14.18;;;16.30;77.90;;;;;;5075935;28;20082;-78
2021/07/20 02:47:49;;;;;;;20.13;13.95;;;16.30;77.80;;;;;;5075886;28;20024;-78
2021/07/20 02:50:17;;;;;;;19.40;13.55;;;16.30;77.60;;;;;;5075798;28;20164;-79
2021/07/20 02:52:46;;;;;;;18.88;13.43;;;16.30;77.50;;;;;;5075909;28;20025;-78
2021/07/20 02:55:13;;;;;;;22.42;14.15;;;16.20;77.60;;;;;;5075804;28;20481;-78
2021/07/20 02:57:41;;;;;;;18.98;14.23;;;16.20;77.50;;;;;;5075790;28;20071;-78
2021/07/20 03:00:09;;;;;;;20.20;14.70;;;16.10;78.00;;;;;;5075728;28;20057;-74
2021/07/20 03:02:42;;;;;;;20.15;14.38;;;16.10;78.30;;;;;;5075941;28;20020;-73
2021/07/20 03:05:09;;;;;;;19.08;13.55;;;16.00;79.00;;;;;;5075499;28;20051;-74
2021/07/20 03:07:36;;;;;;;20.67;13.75;;;16.00;78.40;;;;;;5075777;28;20032;-73
2021/07/20 03:10:03;;;;;;;19.98;12.93;;;16.00;78.50;;;;;;5075592;28;20021;-74
2021/07/20 03:12:30;;;;;;;20.20;14.63;;;16.00;78.30;;;;;;5075623;28;20036;-74
2021/07/20 03:14:57;;;;;;;23.63;16.30;;;16.00;78.40;;;;;;5075456;28;20021;-74
2021/07/20 03:17:25;;;;;;;22.52;14.35;;;16.00;78.60;;;;;;5075543;28;20024;-73
2021/07/20 03:19:52;;;;;;;22.50;15.18;;;16.00;78.80;;;;;;5077701;28;20067;-73
2021/07/20 03:22:21;;;;;;;22.08;14.48;;;15.90;78.70;;;;;;5076198;28;20043;-73
2021/07/20 03:24:47;;;;;;;20.73;14.45;;;16.00;78.80;;;;;;5061898;28;20481;-73
2021/07/20 03:27:13;;;;;;;23.42;15.93;;;16.00;78.60;;;;;;5081073;28;20013;-73
2021/07/20 03:29:42;;;;;;;22.83;15.50;;;15.90;78.70;;;;;;5083168;28;20554;-73
2021/07/20 03:32:17;;;;;;;23.23;14.82;;;15.90;78.90;;;;;;5080266;28;20021;-73
2021/07/20 03:34:44;;;;;;;23.48;15.13;;;15.90;79.00;;;;;;5078417;28;20365;-73
2021/07/20 03:37:12;;;;;;;23.98;15.65;;;15.90;79.00;;;;;;5077243;28;20093;-73
2021/07/20 03:39:40;;;;;;;23.92;15.95;;;15.90;78.90;;;;;;5076041;28;20399;-74
2021/07/20 03:42:10;;;;;;;21.83;16.08;;;15.80;78.80;;;;;;5075968;28;20017;-75
2021/07/20 03:44:37;;;;;;;24.85;15.15;;;15.80;79.10;;;;;;5076139;28;20092;-73
2021/07/20 03:47:03;;;;;;;24.65;15.25;;;15.70;79.20;;;;;;5080504;28;20032;-73
2021/07/20 03:49:29;;;;;;;25.88;16.20;;;15.70;79.40;;;;;;5075740;28;20496;-73
2021/07/20 03:51:59;;;;;;;22.13;15.38;;;15.70;79.40;;;;;;5075022;28;20107;-73
2021/07/20 03:54:26;;;;;;;24.58;16.52;;;15.60;79.20;;;;;;5075219;28;20389;-73
2021/07/20 03:56:54;;;;;;;24.05;15.40;;;15.60;79.10;;;;;;5074500;28;20070;-74
2021/07/20 03:59:22;;;;;;;24.65;15.80;;;15.60;79.20;;;;;;5074492;28;20451;-73
2021/07/20 04:01:49;;;;;;;21.48;14.75;;;15.60;79.10;;;;;;5056358;28;20056;-73
2021/07/20 04:04:17;;;;;;;22.10;15.73;;;15.70;78.90;;;;;;5074396;28;20048;-74
2021/07/20 04:06:44;;;;;;;26.13;16.13;;;15.70;79.50;;;;;;5074582;28;20016;-74
2021/07/20 04:09:12;;;;;;;24.02;15.48;;;15.70;78.90;;;;;;5074489;28;20017;-75
2021/07/20 04:11:39;;;;;;;26.20;15.48;;;15.70;78.80;;;;;;5074939;28;20017;-77
2021/07/20 04:14:05;;;;;;;24.13;15.45;;;15.70;78.60;;;;;;5056659;28;20067;-73
2021/07/20 04:16:33;;;;;;;25.80;16.10;;;15.70;78.80;;;;;;5075197;28;20414;-75
2021/07/20 04:18:58;;;;;;;20.95;15.52;;;15.70;78.80;;;;;;5075063;28;20021;-73
2021/07/20 04:21:24;;;;;;;24.63;15.38;;;15.70;78.70;;;;;;5075117;28;20154;-73
2021/07/20 04:23:50;;;;;;;25.88;16.88;;;15.70;78.60;;;;;;5076481;28;20020;-75
2021/07/20 04:26:17;;;;;;;20.27;14.23;;;15.70;78.60;;;;;;5089334;28;20148;-76
2021/07/20 04:28:43;;;;;;;21.67;14.43;;;15.70;78.70;;;;;;5076365;28;20027;-75
2021/07/20 04:31:09;;;;;;;25.85;15.48;;;15.80;78.60;;;;;;5056307;28;20024;-77
2021/07/20 04:33:36;;;;;;;24.98;16.10;;;15.90;78.30;;;;;;5055803;28;20374;-75
2021/07/20 04:36:03;;;;;;;23.15;15.63;;;15.90;77.80;;;;;;5073493;28;20050;-78
2021/07/20 04:38:32;;;;;;;21.75;15.13;;;15.90;77.60;;;;;;5073935;28;20036;-77
2021/07/20 04:40:59;;;;;;;25.38;17.40;;;15.90;77.50;;;;;;5073786;28;20361;-78
2021/07/20 04:43:25;;;;;;;24.60;16.52;;;15.80;77.60;;;;;;5073863;28;20024;-77
2021/07/20 04:45:53;;;;;;;21.25;15.27;;;15.80;77.80;;;;;;5055471;28;20377;-79
2021/07/20 04:48:20;;;;;;;20.10;14.30;;;15.80;78.10;;;;;;5073701;28;20048;-78
2021/07/20 04:50:46;;;;;;;21.95;15.38;;;15.90;78.20;;;;;;5073662;28;20035;-79
2021/07/20 04:53:14;;;;;;;20.60;13.55;;;15.90;78.00;;;;;;5073442;28;20039;-81
2021/07/20 04:55:40;;;;;;;22.25;15.18;;;16.00;77.60;;;;;;5073411;28;20385;-82
2021/07/20 04:58:07;;;;;;;21.02;14.85;;;16.10;77.40;;;;;;5073290;28;20016;-79
2021/07/20 05:00:35;;;;;;;20.40;15.27;;;16.10;77.10;;;;;;5073492;28;20020;-83
2021/07/20 05:03:02;;;;;;;19.70;14.23;;;16.20;76.90;;;;;;5073579;28;20017;-84
2021/07/20 05:05:31;;;;;;;20.63;14.65;;;16.10;77.10;;;;;;5073652;28;20415;-86
2021/07/20 05:07:59;;;;;;;23.42;15.15;;;16.30;81.60;;;;;;5079752;28;20019;-85
2021/07/20 05:10:26;;;;;;;21.05;15.05;;;16.60;80.90;;;;;;5086190;28;20029;-85
2021/07/20 05:12:52;;;;;;;21.08;14.93;;;16.90;78.60;;;;;;5081995;28;20077;-84
2021/07/20 05:15:19;;;;;;;21.85;15.43;;;17.10;76.20;;;;;;5075249;28;20020;-77
2021/07/20 05:17:46;;;;;;;21.85;15.30;;;17.20;75.20;;;;;;5073535;28;20333;-77
2021/07/20 05:20:14;;;;;;;22.85;15.20;;;17.30;74.60;;;;;;5065131;28;20021;-76
2021/07/20 05:22:41;;;;;;;22.30;15.77;;;17.30;73.90;;;;;;5061482;28;20070;-77
2021/07/20 05:25:08;;;;;;;21.90;16.02;;;17.30;74.20;;;;;;5061678;28;20080;-76
2021/07/20 05:27:35;;;;;;;26.50;16.88;;;17.30;73.50;;;;;;5064042;28;20542;-77
2021/07/20 05:30:03;;;;;;;24.73;16.20;;;17.40;73.50;;;;;;5072569;28;20033;-75
2021/07/20 05:32:30;;;;;;;31.70;16.83;;;17.40;73.70;;;;;;5072830;28;20046;-75
2021/07/20 05:34:56;;;;;;;21.33;15.75;;;17.50;73.40;;;;;;5072919;28;20025;-75
2021/07/20 05:37:22;;;;;;;27.73;17.42;;;17.70;73.20;;;;;;5072978;28;20712;-76
2021/07/20 05:39:48;;;;;;;21.63;14.90;;;17.80;72.70;;;;;;5072782;28;20029;-75
2021/07/20 05:42:18;;;;;;;23.38;15.77;;;17.80;72.60;;;;;;5072322;28;20025;-76
2021/07/20 05:44:46;;;;;;;23.75;16.63;;;17.90;73.40;;;;;;5072640;28;20078;-75
2021/07/20 05:47:15;;;;;;;24.15;16.27;;;18.00;72.40;;;;;;5074941;28;20035;-75
2021/07/20 05:49:41;;;;;;;25.00;16.42;;;17.90;72.30;;;;;;5076894;28;20031;-75
2021/07/20 05:52:08;;;;;;;24.45;18.27;;;18.00;72.50;;;;;;5076587;28;20017;-75
2021/07/20 05:54:35;;;;;;;22.10;16.10;;;18.10;72.40;;;;;;5076798;28;20046;-76
2021/07/20 05:57:02;;;;;;;27.33;18.02;;;18.20;72.00;;;;;;5076560;28;20158;-74
2021/07/20 05:59:28;;;;;;;25.98;18.35;;;18.20;72.00;;;;;;5076640;28;20020;-74
2021/07/20 06:01:56;;;;;;;22.05;16.63;;;18.30;71.40;;;;;;5076521;28;20029;-74
2021/07/20 06:04:23;;;;;;;28.52;18.77;;;18.50;71.40;;;;;;5076398;28;20041;-75
2021/07/20 06:06:50;;;;;;;26.35;17.02;;;18.60;70.80;;;;;;5076588;28;20427;-76
2021/07/20 06:09:20;;;;;;;24.13;17.80;;;18.70;70.70;;;;;;5076314;28;20040;-76
2021/07/20 06:11:47;;;;;;;28.77;17.83;;;18.80;70.50;;;;;;5058538;28;20442;-75
2021/07/20 06:14:15;;;;;;;31.05;19.85;;;18.80;70.00;;;;;;5076164;28;20043;-82
2021/07/20 06:16:42;;;;;;;26.67;18.40;;;18.90;70.00;;;;;;5076185;28;20028;-75
2021/07/20 06:19:08;;;;;;;29.58;19.27;;;19.10;69.60;;;;;;5075980;28;20032;-75
2021/07/20 06:21:35;;;;;;;30.75;19.77;;;19.20;69.10;;;;;;5076020;28;20027;-75
2021/07/20 06:24:02;;;;;;;27.10;17.92;;;19.30;69.20;;;;;;5075642;28;20099;-75
2021/07/20 06:26:28;;;;;;;28.77;19.05;;;19.40;68.90;;;;;;5075609;28;20025;-76
2021/07/20 06:28:59;;;;;;;27.20;18.75;;;19.50;68.60;;;;;;5075884;28;20017;-77
2021/07/20 06:31:25;;;;;;;27.80;18.80;;;19.40;68.90;;;;;;5076727;28;20032;-76
2021/07/20 06:33:53;;;;;;;28.02;18.38;;;19.50;69.00;;;;;;5059457;28;20133;-75
2021/07/20 06:36:20;;;;;;;28.65;18.90;;;19.60;68.70;;;;;;5082430;28;20491;-76
2021/07/20 06:38:46;;;;;;;25.08;17.65;;;19.70;68.50;;;;;;5076094;28;20059;-75
2021/07/20 06:41:12;;;;;;;25.38;17.88;;;19.80;68.50;;;;;;5076123;28;20800;-75
2021/07/20 06:43:41;;;;;;;26.35;17.88;;;19.90;68.20;;;;;;5077329;28;20044;-75
2021/07/20 06:46:08;;;;;;;28.88;17.17;;;19.90;69.00;;;;;;5084767;28;20024;-75
2021/07/20 06:48:37;;;;;;;26.80;18.75;;;20.00;67.60;;;;;;5077143;28;20048;-75
2021/07/20 06:51:03;;;;;;;25.80;18.33;;;20.00;67.50;;;;;;5075429;28;20021;-75
2021/07/20 06:53:29;;;;;;;26.65;18.45;;;20.10;67.70;;;;;;5075701;28;20032;-75
2021/07/20 06:55:57;;;;;;;27.70;18.17;;;20.10;67.70;;;;;;5075746;28;20021;-75
2021/07/20 06:58:27;;;;;;;25.45;17.45;;;20.20;67.30;;;;;;5058819;28;20122;-75
2021/07/20 07:01:01;;;;;;;25.40;18.27;;;20.30;66.90;;;;;;5085361;28;20027;-75
2021/07/20 07:03:39;;;;;;;27.63;20.27;;;20.30;67.20;;;;;;5075365;28;20416;-75
2021/07/20 07:06:06;;;;;;;24.95;18.73;;;20.30;66.90;;;;;;5075523;28;20050;-75
2021/07/20 07:08:32;;;;;;;28.10;18.83;;;20.40;67.00;;;;;;5075152;28;20029;-76
2021/07/20 07:11:00;;;;;;;27.92;19.48;;;20.40;66.80;;;;;;5075203;28;20104;-75
2021/07/20 07:13:28;;;;;;;26.83;19.42;;;20.20;67.30;;;;;;5075093;28;20037;-75
2021/07/20 07:15:55;;;;;;;32.58;22.15;;;20.40;67.20;;;;;;5075058;28;20118;-76
2021/07/20 07:18:21;;;;;;;29.67;20.67;;;20.10;67.70;;;;;;5074912;28;20043;-76
2021/07/20 07:20:50;;;;;;;28.73;19.85;;;20.20;67.80;;;;;;5074847;28;20358;-76
2021/07/20 07:23:18;;;;;;;32.97;21.52;;;20.40;67.30;;;;;;5074856;28;20021;-76
2021/07/20 07:25:51;;;;;;;29.50;19.83;;;20.70;66.30;;;;;;5075061;28;20064;-76
2021/07/20 07:28:18;;;;;;;33.20;21.10;;;20.60;66.00;;;;;;5074560;28;20519;-76
2021/07/20 07:30:46;;;;;;;35.75;21.13;;;20.50;66.30;;;;;;5074947;28;20411;-77
2021/07/20 07:33:12;;;;;;;30.40;20.77;;;20.40;66.80;;;;;;5074794;28;20043;-76
2021/07/20 07:35:38;;;;;;;25.80;20.08;;;20.50;67.00;;;;;;5074607;28;20016;-75
2021/07/20 07:38:04;;;;;;;29.60;18.90;;;20.50;67.20;;;;;;5074503;28;20416;-75
2021/07/20 07:40:31;;;;;;;34.53;22.75;;;20.70;67.30;;;;;;5074834;28;20029;-75
2021/07/20 07:42:59;;;;;;;27.38;19.40;;;20.80;65.90;;;;;;5074676;28;20358;-73
2021/07/20 07:45:26;;;;;;;31.05;21.45;;;20.90;65.80;;;;;;5074486;28;20028;-75
2021/07/20 07:47:52;;;;;;;27.05;19.45;;;20.50;67.10;;;;;;5074504;28;20017;-74
2021/07/20 07:50:18;;;;;;;30.00;21.75;;;20.60;66.80;;;;;;5074446;28;20163;-74
2021/07/20 07:52:44;;;;;;;32.63;21.67;;;20.40;67.80;;;;;;5074275;28;20107;-75
2021/07/20 07:55:10;;;;;;;28.67;20.88;;;20.40;68.60;;;;;;5074307;28;20111;-75
2021/07/20 07:57:38;;;;;;;27.23;20.02;;;20.60;69.20;;;;;;5074287;28;20024;-75
2021/07/20 08:00:07;;;;;;;32.08;21.85;;;20.80;67.30;;;;;;5074211;28;20119;-75
2021/07/20 08:02:35;;;;;;;31.95;22.33;;;20.90;67.10;;;;;;5073914;28;20094;-75
2021/07/20 08:05:02;;;;;;;31.50;21.25;;;20.40;67.90;;;;;;5073864;28;20052;-74
2021/07/20 08:07:29;;;;;;;29.67;20.40;;;20.40;69.10;;;;;;5074047;28;20086;-75
2021/07/20 08:09:58;;;;;;;25.85;18.83;;;20.30;69.50;;;;;;5072710;28;20029;-77
2021/07/20 08:12:26;;;;;;;26.52;19.00;;;20.40;69.20;;;;;;5073973;28;20039;-75
2021/07/20 08:14:52;;;;;;;33.03;20.63;;;20.50;68.80;;;;;;5073795;28;20055;-74
2021/07/20 08:17:18;;;;;;;30.63;19.23;;;20.70;67.70;;;;;;5073887;28;20060;-75
2021/07/20 08:19:44;;;;;;;27.25;19.45;;;20.80;67.20;;;;;;5073678;28;20032;-75
2021/07/20 08:22:14;;;;;;;24.83;17.48;;;21.10;67.20;;;;;;5073627;28;20021;-75
2021/07/20 08:24:47;;;;;;;28.70;18.95;;;21.40;65.80;;;;;;5056456;28;20028;-75
2021/07/20 08:27:22;;;;;;;31.88;19.17;;;21.40;65.10;;;;;;5073920;28;20016;-75
2021/07/20 08:29:51;;;;;;;29.08;19.23;;;21.50;64.20;;;;;;5055959;28;20033;-75
2021/07/20 08:32:20;;;;;;;26.13;18.45;;;21.30;64.50;;;;;;5073392;28;20067;-75
2021/07/20 08:34:50;;;;;;;26.45;18.30;;;21.30;65.70;;;;;;5073595;28;20485;-75
2021/07/20 08:37:19;;;;;;;26.38;17.98;;;21.40;64.90;;;;;;5073353;28;20028;-76
2021/07/20 08:39:48;;;;;;;25.90;18.42;;;21.30;64.10;;;;;;5073206;28;20047;-76
2021/07/20 08:42:27;;;;;;;24.10;17.38;;;21.50;64.30;;;;;;5073378;28;20044;-76
2021/07/20 08:45:17;;;;;;;24.63;17.02;;;21.50;63.70;;;;;;5073192;28;20048;-75
2021/07/20 08:47:57;;;;;;;26.40;16.75;;;21.40;64.20;;;;;;5073088;28;20021;-75
2021/07/20 08:50:29;;;;;;;21.77;15.93;;;21.60;63.80;;;;;;5073232;28;20024;-75
2021/07/20 08:53:04;;;;;;;25.63;16.25;;;21.70;62.30;;;;;;5072976;28;20036;-75
2021/07/20 08:55:32;;;;;;;23.47;17.57;;;22.00;61.50;;;;;;5073273;28;20027;-77
2021/07/20 08:58:06;;;;;;;25.83;17.55;;;22.00;61.60;;;;;;5073059;28;20046;-76
2021/07/20 09:00:40;;;;;;;25.17;17.92;;;21.90;60.00;;;;;;5073282;28;20150;-75
2021/07/20 09:03:16;;;;;;;30.00;17.83;;;21.70;62.00;;;;;;5072876;28;20380;-75
2021/07/20 09:05:42;;;;;;;27.10;15.80;;;21.70;62.00;;;;;;5072693;28;20036;-75
2021/07/20 09:08:26;;;;;;;24.45;16.27;;;21.60;62.00;;;;;;5072903;28;20036;-75
2021/07/20 09:11:05;;;;;;;21.15;15.55;;;22.00;61.20;;;;;;5072567;28;20027;-75
2021/07/20 09:13:35;;;;;;;17.17;13.70;;;22.30;60.60;;;;;;5072641;28;20558;-74
2021/07/20 09:16:18;;;;;;;21.58;15.77;;;22.70;60.10;;;;;;5072838;28;20511;-75
2021/07/20 09:18:49;;;;;;;22.70;14.48;;;22.90;58.00;;;;;;5072743;28;20052;-75
2021/07/20 09:21:18;;;;;;;23.35;15.88;;;23.20;57.60;;;;;;5072623;28;20027;-75
2021/07/20 09:24:18;;;;;;;23.20;16.80;;;23.00;56.20;;;;;;5072597;28;20028;-74
2021/07/20 09:26:53;;;;;;;26.20;16.60;;;22.90;58.00;;;;;;5072638;28;20025;-75
2021/07/20 09:29:21;;;;;;;;;;;22.80;57.60;;;;;;5073284;28;20024;-76
2021/07/20 09:31:51;;;;;;;18.83;14.43;;;22.70;57.80;;;;;;5072746;28;19991;-75
2021/07/20 09:34:38;;;;;;;22.73;15.45;;;22.90;58.30;;;;;;5072491;28;20233;-74
2021/07/20 09:37:07;;;;;;;20.30;15.40;;;23.20;58.70;;;;;;5054160;28;20020;-75
2021/07/20 09:39:38;;;;;;;22.90;16.17;;;23.50;57.00;;;;;;5072549;28;20021;-75
2021/07/20 09:42:13;;;;;;;23.75;15.93;;;23.70;56.40;;;;;;5072269;28;20032;-74
2021/07/20 09:44:47;;;;;;;20.13;15.73;;;23.90;54.80;;;;;;5072636;28;20473;-74
2021/07/20 09:47:24;;;;;;;22.33;15.65;;;24.10;54.20;;;;;;5072702;28;20029;-75
2021/07/20 09:50:10;;;;;;;21.15;15.10;;;24.20;53.50;;;;;;5072555;28;20472;-76
2021/07/20 09:52:39;;;;;;;23.75;16.02;;;24.10;54.40;;;;;;5072569;28;20063;-73
2021/07/20 09:55:42;;;;;;;21.33;14.85;;;23.90;53.20;;;;;;5072515;28;20030;-78
2021/07/20 09:58:07;;;;;;;23.20;16.17;;;24.00;54.00;;;;;;5072461;28;20044;-77
2021/07/20 10:00:50;;;;;;;22.60;17.10;;;24.10;54.70;;;;;;5072445;28;20481;-76
2021/07/20 10:03:34;;;;;;;21.95;16.27;;;24.20;53.10;;;;;;5072316;28;20123;-77
2021/07/20 10:06:13;;;;;;;23.10;15.63;;;23.90;52.70;;;;;;5053949;28;20370;-77
2021/07/20 10:08:54;;;;;;;24.00;16.10;;;23.60;53.70;;;;;;5054144;28;20032;-77
2021/07/20 10:11:41;;;;;;;22.55;15.63;;;23.50;54.90;;;;;;5072013;28;20027;-77
2021/07/20 10:14:09;;;;;;;23.27;16.25;;;23.80;55.70;;;;;;5071847;28;20059;-76
2021/07/20 10:16:53;;;;;;;22.95;15.70;;;24.10;54.70;;;;;;5071965;28;20049;-75
2021/07/20 10:19:35;;;;;;;19.48;14.52;;;24.40;52.70;;;;;;5072167;28;20064;-75
2021/07/20 10:22:05;;;;;;;21.33;15.57;;;24.80;52.70;;;;;;5072216;28;20096;-75
2021/07/20 10:24:32;;;;;;;18.98;14.25;;;25.00;50.90;;;;;;5072072;28;20028;-75
2021/07/20 10:27:04;;;;;;;23.10;15.50;;;25.20;50.10;;;;;;5071737;28;20094;-75
2021/07/20 10:30:00;;;;;;;23.08;16.33;;;25.60;48.80;;;;;;5072091;28;20043;-75
2021/07/20 10:32:44;;;;;;;20.85;16.77;;;25.70;48.00;;;;;;5072549;28;20021;-75
2021/07/20 10:35:17;;;;;;;22.08;15.90;;;25.50;46.90;;;;;;5075940;28;20024;-75
2021/07/20 10:37:46;;;;;;;18.10;14.27;;;25.70;47.60;;;;;;5075903;28;20056;-76
2021/07/20 10:40:16;;;;;;;21.55;14.32;;;25.90;46.40;;;;;;5075967;28;20020;-77
2021/07/20 10:43:03;;;;;;;17.75;14.13;;;25.90;44.20;;;;;;5075823;28;20016;-76
2021/07/20 10:45:33;;;;;;;19.88;15.25;;;26.20;45.00;;;;;;5075870;28;20025;-76
2021/07/20 10:48:18;;;;;;;20.95;15.38;;;26.30;44.00;;;;;;5077060;28;20107;-76
2021/07/20 10:51:00;;;;;;;23.92;15.13;;;26.10;43.90;;;;;;5076883;28;20484;-76
2021/07/20 10:53:44;;;;;;;20.23;15.43;;;26.20;43.80;;;;;;5076542;28;20091;-76
2021/07/20 10:56:18;;;;;;;21.27;14.73;;;25.90;43.20;;;;;;5077175;28;20104;-76
2021/07/20 10:59:08;;;;;;;18.95;15.10;;;25.90;44.50;;;;;;5076545;28;20025;-76
2021/07/20 11:02:00;;;;;;;19.35;15.75;;;26.10;45.00;;;;;;5076026;28;20028;-75
2021/07/20 11:04:30;;;;;;;22.73;16.25;;;26.00;44.00;;;;;;5075795;28;20084;-75
2021/07/20 11:06:56;;;;;;;19.13;15.60;;;25.80;43.40;;;;;;5057770;28;20032;-75
2021/07/20 11:09:26;;;;;;;18.13;14.32;;;25.70;44.20;;;;;;5076389;28;20083;-75
2021/07/20 11:11:55;;;;;;;20.10;13.70;;;26.10;45.00;;;;;;5076614;28;20016;-77
2021/07/20 11:14:28;;;;;;;23.75;15.63;;;26.50;43.70;;;;;;5086503;28;20041;-75
2021/07/20 11:16:55;;;;;;;17.58;13.93;;;26.80;41.80;;;;;;5079422;28;20036;-76
2021/07/20 11:19:24;;;;;;;21.20;14.30;;;27.00;42.70;;;;;;5079644;28;20017;-75
2021/07/20 11:21:50;;;;;;;22.08;15.38;;;27.30;41.80;;;;;;5078937;28;20040;-75
2021/07/20 11:24:18;;;;;;;18.85;14.75;;;27.30;41.20;;;;;;5059264;28;20031;-74
2021/07/20 11:26:45;;;;;;;19.00;15.10;;;27.10;41.80;;;;;;5080119;28;20464;-74
2021/07/20 11:29:12;;;;;;;19.63;14.90;;;26.20;43.50;;;;;;5076771;28;20035;-75
2021/07/20 11:31:42;;;;;;;23.25;16.00;;;26.10;43.90;;;;;;5081762;28;20025;-76
2021/07/20 11:34:13;;;;;;;22.13;14.63;;;26.40;43.30;;;;;;5078187;28;20499;-75
2021/07/20 11:36:41;;;;;;;21.60;15.45;;;26.60;42.80;;;;;;5078103;28;20024;-76
2021/07/20 11:39:11;;;;;;;21.10;15.45;;;26.50;43.10;;;;;;5079966;28;20080;-75
2021/07/20 11:41:43;;;;;;;19.33;14.73;;;26.50;41.90;;;;;;5083614;28;20020;-76
2021/07/20 11:44:12;;;;;;;18.35;14.35;;;26.70;42.00;;;;;;5085337;28;20029;-79
2021/07/20 11:47:03;;;;;;;21.13;14.77;;;27.00;43.60;;;;;;5093347;28;20024;-78
2021/07/20 11:49:45;;;;;;;24.63;14.60;;;26.70;41.10;;;;;;5092193;28;20119;-78
2021/07/20 11:52:46;;;;;;;18.80;14.43;;;26.80;43.50;;;;;;5078215;28;20048;-77
2021/07/20 11:55:42;;;;;;;25.80;16.00;;;27.30;42.80;;;;;;5056706;28;20122;-78
2021/07/20 11:58:55;;;;;;;19.45;15.15;;;27.10;40.20;;;;;;5054785;28;20048;-79
2021/07/20 12:01:57;;;;;;;19.10;14.07;;;27.20;40.50;;;;;;5054516;28;20068;-78
2021/07/20 12:04:29;;;;;;;20.58;14.77;;;27.50;40.30;;;;;;5054583;28;20044;-78
2021/07/20 12:07:06;;;;;;;21.17;15.00;;;28.00;40.30;;;;;;5054564;28;20029;-79
2021/07/20 12:10:00;;;;;;;22.45;16.52;;;28.40;39.50;;;;;;5054489;28;20048;-79
2021/07/20 12:12:49;;;;;;;20.10;15.90;;;27.80;38.30;;;;;;5054508;28;20133;-78
2021/07/20 12:15:17;;;;;;;22.60;16.70;;;27.50;38.30;;;;;;5054101;28;20040;-78
2021/07/20 12:17:44;;;;;;;19.25;14.93;;;27.30;39.20;;;;;;5036319;28;20405;-79
2021/07/20 12:20:12;;;;;;;18.42;15.35;;;27.50;39.40;;;;;;5053996;28;20059;-74
2021/07/20 12:22:43;;;;;;;20.08;15.25;;;27.90;38.50;;;;;;5053658;28;20025;-77
2021/07/20 12:25:11;;;;;;;18.80;15.10;;;28.20;38.60;;;;;;5053470;28;20483;-77
2021/07/20 12:27:38;;;;;;;22.77;16.75;;;28.50;37.60;;;;;;5053925;28;20039;-78
2021/07/20 12:30:10;;;;;;;24.25;15.60;;;28.20;37.50;;;;;;5053949;28;20441;-78
2021/07/20 12:32:37;;;;;;;22.83;16.58;;;28.10;38.00;;;;;;5053870;28;20382;-78
2021/07/20 12:35:05;;;;;;;22.65;15.18;;;28.20;37.20;;;;;;5053990;28;20485;-79
2021/07/20 12:37:30;;;;;;;20.60;15.63;;;27.70;36.80;;;;;;5053746;28;20450;-79
2021/07/20 12:39:59;;;;;;;22.13;16.08;;;27.40;38.80;;;;;;5053105;28;20045;-78
2021/07/20 12:42:36;;;;;;;21.35;15.80;;;27.40;38.60;;;;;;5053370;28;20509;-79
2021/07/20 12:45:13;;;;;;;19.77;16.20;;;27.60;38.60;;;;;;5053502;28;20140;-77
2021/07/20 12:47:44;;;;;;;22.23;16.63;;;28.10;39.20;;;;;;5053319;28;20378;-78
2021/07/20 12:50:13;;;;;;;21.33;17.05;;;28.20;36.20;;;;;;5035638;28;20045;-78